KELM/ELM METAR and TAF weather

Enter ICAO airport designator
Station Type Date Time Source
KELM METAR 2019/12/14 05:53 UTC NOAA

KELM 140553Z AUTO 00000KT 1/2SM R24/3500V4000FT -RA FG VV003 02/02 A2981 RMK AO2 RAB30 SLP102 P0001 60001 T00220022 10028 20022 58034


Station Type Date Time Source
KELM Decoded METAR 2019/12/14 05:53 UTC NOAA

ELMIRA COUNTY AIRPORT, NY, United States (KELM) 42-10N 76-54W 302M
Dec 14, 2019 - 12:53 AM EST / 2019.12.14 0553 UTC
Wind: Calm (direction variable):0
Visibility: 1/2 mile(s):0
Sky conditions: obscured
Weather: light rain; fog
Precipitation last hour: 0.01 inches
Temperature: 36.0 F (2.2 C)
Dew Point: 36.0 F (2.2 C)
Relative Humidity: 100%
Pressure (altimeter): 29.81 in. Hg (1009 hPa)
Pressure tendency: 0.10 inches (3.4 hPa) lower than three hours ago
ob: KELM 140553Z AUTO 00000KT 1/2SM R24/3500V4000FT -RA FG VV003 02/02 A2981 RMK AO2 RAB30 SLP102 P0001 60001 T00220022 10028 20022 58034
cycle: 6

Station Type Date Time Source
KELM TAF 2019/12/14 06:22 UTC NOAA

TAF KELM 140520Z 1406/1506 00000KT 3/4SM -RA BR OVC004
FM142000 31010G15KT 1SM -RA BR OVC004
FM150000 27015G25KT 2SM -RA BR OVC007
FM150300 26020G30KT 1 1/2SM -SN BR OVC015

Example: see airport list